<?xml version="1.0" encoding="UTF-8" standalone="no" ?>
<gpx xmlns="http://www.topografix.com/GPX/1/1" xmlns:xsi="http://www.w3.org/2001/XMLSchema-instance" xsi:schemaLocation="http://www.topografix.com/GPX/1/1 http://www.topografix.com/GPX/1/1/gpx.xsd" version="1.1" creator="VisuGPX - https://www.visugpx.com">
  <metadata>
    <name>Fontainebleau, la Haute Plaine</name>
    <desc><![CDATA[Promenade au départ du parking de Franchard. 
Un détour pour voir mare dans la parcelle 777. Un autre détour dans les sous-bois pour éviter la Route Raymond qui était transformée en étang ce jour là. Au passage, on peut admirer un cèdre et un séquoïa majestueux. Si on a une demie-heure de plus à passer, pénétrer dans l'arboretum pour le visiter, il y a une entrée au séquoïa.]]></desc>
  </metadata>
  <trk>
    <name><![CDATA[20180311185011-1mmPp]]></name>
    <trkseg>
      <trkpt lat="48.40884" lon="2.63663">
        <ele>139</ele>
        <time>2018-03-11T13:09:37Z</time>
      </trkpt>
      <trkpt lat="48.40867" lon="2.63625">
        <ele>139</ele>
        <time>2018-03-11T13:10:00Z</time>
      </trkpt>
      <trkpt lat="48.40866" lon="2.63625">
        <ele>139</ele>
        <time>2018-03-11T13:10:25Z</time>
      </trkpt>
      <trkpt lat="48.40867" lon="2.63622">
        <ele>139</ele>
        <time>2018-03-11T13:10:40Z</time>
      </trkpt>
      <trkpt lat="48.40865" lon="2.63605">
        <ele>139</ele>
        <time>2018-03-11T13:11:04Z</time>
      </trkpt>
      <trkpt lat="48.40876" lon="2.6358">
        <ele>139</ele>
        <time>2018-03-11T13:11:29Z</time>
      </trkpt>
      <trkpt lat="48.40887" lon="2.63556">
        <ele>139</ele>
        <time>2018-03-11T13:11:52Z</time>
      </trkpt>
      <trkpt lat="48.40894" lon="2.63535">
        <ele>139</ele>
        <time>2018-03-11T13:12:16Z</time>
      </trkpt>
      <trkpt lat="48.40897" lon="2.63521">
        <ele>139</ele>
        <time>2018-03-11T13:12:37Z</time>
      </trkpt>
      <trkpt lat="48.40904" lon="2.63499">
        <ele>139</ele>
        <time>2018-03-11T13:12:56Z</time>
      </trkpt>
      <trkpt lat="48.40899" lon="2.63481">
        <ele>139</ele>
        <time>2018-03-11T13:13:12Z</time>
      </trkpt>
      <trkpt lat="48.40896" lon="2.63471">
        <ele>139</ele>
        <time>2018-03-11T13:13:26Z</time>
      </trkpt>
      <trkpt lat="48.40888" lon="2.63451">
        <ele>139</ele>
        <time>2018-03-11T13:13:44Z</time>
      </trkpt>
      <trkpt lat="48.40886" lon="2.63455">
        <ele>139</ele>
        <time>2018-03-11T13:14:04Z</time>
      </trkpt>
      <trkpt lat="48.4088" lon="2.634">
        <ele>138</ele>
        <time>2018-03-11T13:14:32Z</time>
      </trkpt>
      <trkpt lat="48.40883" lon="2.63367">
        <ele>137</ele>
        <time>2018-03-11T13:14:55Z</time>
      </trkpt>
      <trkpt lat="48.40879" lon="2.63356">
        <ele>137</ele>
        <time>2018-03-11T13:15:06Z</time>
      </trkpt>
      <trkpt lat="48.40871" lon="2.63344">
        <ele>137</ele>
        <time>2018-03-11T13:15:20Z</time>
      </trkpt>
      <trkpt lat="48.40863" lon="2.63325">
        <ele>136</ele>
        <time>2018-03-11T13:15:38Z</time>
      </trkpt>
      <trkpt lat="48.40847" lon="2.63323">
        <ele>136</ele>
        <time>2018-03-11T13:16:00Z</time>
      </trkpt>
      <trkpt lat="48.4084" lon="2.63321">
        <ele>136</ele>
        <time>2018-03-11T13:16:15Z</time>
      </trkpt>
      <trkpt lat="48.40835" lon="2.63356">
        <ele>137</ele>
        <time>2018-03-11T13:16:37Z</time>
      </trkpt>
      <trkpt lat="48.40827" lon="2.63359">
        <ele>136</ele>
        <time>2018-03-11T13:16:56Z</time>
      </trkpt>
      <trkpt lat="48.40822" lon="2.63387">
        <ele>137</ele>
        <time>2018-03-11T13:17:14Z</time>
      </trkpt>
      <trkpt lat="48.40815" lon="2.63396">
        <ele>137</ele>
        <time>2018-03-11T13:17:32Z</time>
      </trkpt>
      <trkpt lat="48.40811" lon="2.63409">
        <ele>137</ele>
        <time>2018-03-11T13:17:57Z</time>
      </trkpt>
      <trkpt lat="48.40803" lon="2.63431">
        <ele>137</ele>
        <time>2018-03-11T13:18:16Z</time>
      </trkpt>
      <trkpt lat="48.40804" lon="2.6345">
        <ele>137</ele>
        <time>2018-03-11T13:18:36Z</time>
      </trkpt>
      <trkpt lat="48.40803" lon="2.63481">
        <ele>137</ele>
        <time>2018-03-11T13:18:55Z</time>
      </trkpt>
      <trkpt lat="48.40798" lon="2.635">
        <ele>137</ele>
        <time>2018-03-11T13:19:07Z</time>
      </trkpt>
      <trkpt lat="48.40793" lon="2.6351">
        <ele>138</ele>
        <time>2018-03-11T13:19:21Z</time>
      </trkpt>
      <trkpt lat="48.40789" lon="2.63539">
        <ele>138</ele>
        <time>2018-03-11T13:19:37Z</time>
      </trkpt>
      <trkpt lat="48.40776" lon="2.63552">
        <ele>138</ele>
        <time>2018-03-11T13:19:55Z</time>
      </trkpt>
      <trkpt lat="48.40781" lon="2.6357">
        <ele>138</ele>
        <time>2018-03-11T13:20:15Z</time>
      </trkpt>
      <trkpt lat="48.40782" lon="2.63577">
        <ele>138</ele>
        <time>2018-03-11T13:20:30Z</time>
      </trkpt>
      <trkpt lat="48.40771" lon="2.63615">
        <ele>137</ele>
        <time>2018-03-11T13:20:52Z</time>
      </trkpt>
      <trkpt lat="48.40756" lon="2.63629">
        <ele>137</ele>
        <time>2018-03-11T13:21:09Z</time>
      </trkpt>
      <trkpt lat="48.40741" lon="2.63642">
        <ele>136</ele>
        <time>2018-03-11T13:21:29Z</time>
      </trkpt>
      <trkpt lat="48.40726" lon="2.63651">
        <ele>136</ele>
        <time>2018-03-11T13:21:49Z</time>
      </trkpt>
      <trkpt lat="48.40711" lon="2.6366">
        <ele>136</ele>
        <time>2018-03-11T13:22:09Z</time>
      </trkpt>
      <trkpt lat="48.40693" lon="2.63667">
        <ele>135</ele>
        <time>2018-03-11T13:22:30Z</time>
      </trkpt>
      <trkpt lat="48.40676" lon="2.63672">
        <ele>135</ele>
        <time>2018-03-11T13:22:46Z</time>
      </trkpt>
      <trkpt lat="48.40655" lon="2.63679">
        <ele>135</ele>
        <time>2018-03-11T13:23:07Z</time>
      </trkpt>
      <trkpt lat="48.40646" lon="2.63681">
        <ele>135</ele>
        <time>2018-03-11T13:23:24Z</time>
      </trkpt>
      <trkpt lat="48.40621" lon="2.63684">
        <ele>135</ele>
        <time>2018-03-11T13:23:44Z</time>
      </trkpt>
      <trkpt lat="48.40599" lon="2.63693">
        <ele>135</ele>
        <time>2018-03-11T13:24:05Z</time>
      </trkpt>
      <trkpt lat="48.40583" lon="2.63704">
        <ele>136</ele>
        <time>2018-03-11T13:24:24Z</time>
      </trkpt>
      <trkpt lat="48.40577" lon="2.63707">
        <ele>136</ele>
        <time>2018-03-11T13:24:38Z</time>
      </trkpt>
      <trkpt lat="48.40569" lon="2.63713">
        <ele>136</ele>
        <time>2018-03-11T13:24:55Z</time>
      </trkpt>
      <trkpt lat="48.40555" lon="2.63721">
        <ele>137</ele>
        <time>2018-03-11T13:25:13Z</time>
      </trkpt>
      <trkpt lat="48.40542" lon="2.63713">
        <ele>137</ele>
        <time>2018-03-11T13:25:32Z</time>
      </trkpt>
      <trkpt lat="48.40525" lon="2.63719">
        <ele>137</ele>
        <time>2018-03-11T13:25:51Z</time>
      </trkpt>
      <trkpt lat="48.40508" lon="2.63734">
        <ele>137</ele>
        <time>2018-03-11T13:26:12Z</time>
      </trkpt>
      <trkpt lat="48.40495" lon="2.63752">
        <ele>137</ele>
        <time>2018-03-11T13:26:33Z</time>
      </trkpt>
      <trkpt lat="48.40477" lon="2.63761">
        <ele>137</ele>
        <time>2018-03-11T13:26:54Z</time>
      </trkpt>
      <trkpt lat="48.40461" lon="2.63766">
        <ele>137</ele>
        <time>2018-03-11T13:27:17Z</time>
      </trkpt>
      <trkpt lat="48.40441" lon="2.63773">
        <ele>137</ele>
        <time>2018-03-11T13:27:39Z</time>
      </trkpt>
      <trkpt lat="48.40424" lon="2.63773">
        <ele>137</ele>
        <time>2018-03-11T13:27:58Z</time>
      </trkpt>
      <trkpt lat="48.40421" lon="2.63748">
        <ele>138</ele>
        <time>2018-03-11T13:28:19Z</time>
      </trkpt>
      <trkpt lat="48.40431" lon="2.63723">
        <ele>138</ele>
        <time>2018-03-11T13:28:39Z</time>
      </trkpt>
      <trkpt lat="48.40431" lon="2.63701">
        <ele>138</ele>
        <time>2018-03-11T13:28:58Z</time>
      </trkpt>
      <trkpt lat="48.40434" lon="2.63681">
        <ele>139</ele>
        <time>2018-03-11T13:29:15Z</time>
      </trkpt>
      <trkpt lat="48.40434" lon="2.63678">
        <ele>139</ele>
        <time>2018-03-11T13:29:18Z</time>
      </trkpt>
      <trkpt lat="48.40436" lon="2.6366">
        <ele>139</ele>
        <time>2018-03-11T13:29:34Z</time>
      </trkpt>
      <trkpt lat="48.40437" lon="2.63654">
        <ele>139</ele>
        <time>2018-03-11T13:29:54Z</time>
      </trkpt>
      <trkpt lat="48.40441" lon="2.63623">
        <ele>139</ele>
        <time>2018-03-11T13:30:14Z</time>
      </trkpt>
      <trkpt lat="48.40442" lon="2.63594">
        <ele>139</ele>
        <time>2018-03-11T13:30:32Z</time>
      </trkpt>
      <trkpt lat="48.40449" lon="2.63572">
        <ele>138</ele>
        <time>2018-03-11T13:30:51Z</time>
      </trkpt>
      <trkpt lat="48.40451" lon="2.63543">
        <ele>138</ele>
        <time>2018-03-11T13:31:11Z</time>
      </trkpt>
      <trkpt lat="48.40452" lon="2.63517">
        <ele>137</ele>
        <time>2018-03-11T13:31:29Z</time>
      </trkpt>
      <trkpt lat="48.40454" lon="2.63493">
        <ele>136</ele>
        <time>2018-03-11T13:31:46Z</time>
      </trkpt>
      <trkpt lat="48.40462" lon="2.63473">
        <ele>136</ele>
        <time>2018-03-11T13:32:06Z</time>
      </trkpt>
      <trkpt lat="48.40467" lon="2.63453">
        <ele>136</ele>
        <time>2018-03-11T13:32:23Z</time>
      </trkpt>
      <trkpt lat="48.40471" lon="2.63416">
        <ele>134</ele>
        <time>2018-03-11T13:32:44Z</time>
      </trkpt>
      <trkpt lat="48.40472" lon="2.63385">
        <ele>134</ele>
        <time>2018-03-11T13:33:03Z</time>
      </trkpt>
      <trkpt lat="48.40475" lon="2.63356">
        <ele>134</ele>
        <time>2018-03-11T13:33:23Z</time>
      </trkpt>
      <trkpt lat="48.40479" lon="2.63331">
        <ele>134</ele>
        <time>2018-03-11T13:33:44Z</time>
      </trkpt>
      <trkpt lat="48.40483" lon="2.63311">
        <ele>134</ele>
        <time>2018-03-11T13:34:00Z</time>
      </trkpt>
      <trkpt lat="48.40486" lon="2.63276">
        <ele>134</ele>
        <time>2018-03-11T13:34:18Z</time>
      </trkpt>
      <trkpt lat="48.40493" lon="2.63254">
        <ele>135</ele>
        <time>2018-03-11T13:34:37Z</time>
      </trkpt>
      <trkpt lat="48.40493" lon="2.63257">
        <ele>134</ele>
        <time>2018-03-11T13:34:50Z</time>
      </trkpt>
      <trkpt lat="48.40492" lon="2.63257">
        <ele>134</ele>
        <time>2018-03-11T13:35:10Z</time>
      </trkpt>
      <trkpt lat="48.40492" lon="2.63252">
        <ele>135</ele>
        <time>2018-03-11T13:35:31Z</time>
      </trkpt>
      <trkpt lat="48.40492" lon="2.63246">
        <ele>135</ele>
        <time>2018-03-11T13:35:46Z</time>
      </trkpt>
      <trkpt lat="48.4049" lon="2.63225">
        <ele>134</ele>
        <time>2018-03-11T13:36:02Z</time>
      </trkpt>
      <trkpt lat="48.40476" lon="2.63206">
        <ele>134</ele>
        <time>2018-03-11T13:36:22Z</time>
      </trkpt>
      <trkpt lat="48.40464" lon="2.63188">
        <ele>134</ele>
        <time>2018-03-11T13:36:47Z</time>
      </trkpt>
      <trkpt lat="48.40456" lon="2.63156">
        <ele>135</ele>
        <time>2018-03-11T13:37:10Z</time>
      </trkpt>
      <trkpt lat="48.40455" lon="2.63124">
        <ele>135</ele>
        <time>2018-03-11T13:37:34Z</time>
      </trkpt>
      <trkpt lat="48.40454" lon="2.63097">
        <ele>135</ele>
        <time>2018-03-11T13:38:01Z</time>
      </trkpt>
      <trkpt lat="48.40444" lon="2.63055">
        <ele>136</ele>
        <time>2018-03-11T13:38:28Z</time>
      </trkpt>
      <trkpt lat="48.40444" lon="2.63036">
        <ele>136</ele>
        <time>2018-03-11T13:39:06Z</time>
      </trkpt>
      <trkpt lat="48.40443" lon="2.63024">
        <ele>137</ele>
        <time>2018-03-11T13:39:42Z</time>
      </trkpt>
      <trkpt lat="48.40439" lon="2.6301">
        <ele>137</ele>
        <time>2018-03-11T13:39:59Z</time>
      </trkpt>
      <trkpt lat="48.40444" lon="2.62972">
        <ele>136</ele>
        <time>2018-03-11T13:40:20Z</time>
      </trkpt>
      <trkpt lat="48.40439" lon="2.62945">
        <ele>136</ele>
        <time>2018-03-11T13:40:42Z</time>
      </trkpt>
      <trkpt lat="48.40433" lon="2.62908">
        <ele>136</ele>
        <time>2018-03-11T13:41:06Z</time>
      </trkpt>
      <trkpt lat="48.40428" lon="2.62887">
        <ele>135</ele>
        <time>2018-03-11T13:41:24Z</time>
      </trkpt>
      <trkpt lat="48.40427" lon="2.62867">
        <ele>135</ele>
        <time>2018-03-11T13:41:40Z</time>
      </trkpt>
      <trkpt lat="48.40425" lon="2.62828">
        <ele>135</ele>
        <time>2018-03-11T13:42:03Z</time>
      </trkpt>
      <trkpt lat="48.40422" lon="2.62795">
        <ele>133</ele>
        <time>2018-03-11T13:42:25Z</time>
      </trkpt>
      <trkpt lat="48.40418" lon="2.62763">
        <ele>134</ele>
        <time>2018-03-11T13:42:48Z</time>
      </trkpt>
      <trkpt lat="48.40416" lon="2.62736">
        <ele>136</ele>
        <time>2018-03-11T13:43:10Z</time>
      </trkpt>
      <trkpt lat="48.40413" lon="2.62702">
        <ele>136</ele>
        <time>2018-03-11T13:43:36Z</time>
      </trkpt>
      <trkpt lat="48.4041" lon="2.62667">
        <ele>135</ele>
        <time>2018-03-11T13:43:59Z</time>
      </trkpt>
      <trkpt lat="48.40408" lon="2.6264">
        <ele>135</ele>
        <time>2018-03-11T13:44:23Z</time>
      </trkpt>
      <trkpt lat="48.40403" lon="2.62616">
        <ele>136</ele>
        <time>2018-03-11T13:44:41Z</time>
      </trkpt>
      <trkpt lat="48.40399" lon="2.62578">
        <ele>136</ele>
        <time>2018-03-11T13:45:03Z</time>
      </trkpt>
      <trkpt lat="48.40398" lon="2.62547">
        <ele>136</ele>
        <time>2018-03-11T13:45:26Z</time>
      </trkpt>
      <trkpt lat="48.40396" lon="2.6251">
        <ele>136</ele>
        <time>2018-03-11T13:45:45Z</time>
      </trkpt>
      <trkpt lat="48.4039" lon="2.62469">
        <ele>138</ele>
        <time>2018-03-11T13:46:11Z</time>
      </trkpt>
      <trkpt lat="48.40388" lon="2.62437">
        <ele>138</ele>
        <time>2018-03-11T13:46:37Z</time>
      </trkpt>
      <trkpt lat="48.40385" lon="2.62394">
        <ele>139</ele>
        <time>2018-03-11T13:47:04Z</time>
      </trkpt>
      <trkpt lat="48.404" lon="2.62419">
        <ele>137</ele>
        <time>2018-03-11T13:47:50Z</time>
      </trkpt>
      <trkpt lat="48.40406" lon="2.62418">
        <ele>137</ele>
        <time>2018-03-11T13:48:12Z</time>
      </trkpt>
      <trkpt lat="48.40426" lon="2.62435">
        <ele>134</ele>
        <time>2018-03-11T13:48:37Z</time>
      </trkpt>
      <trkpt lat="48.40449" lon="2.6245">
        <ele>133</ele>
        <time>2018-03-11T13:49:03Z</time>
      </trkpt>
      <trkpt lat="48.40458" lon="2.6246">
        <ele>132</ele>
        <time>2018-03-11T13:49:17Z</time>
      </trkpt>
      <trkpt lat="48.40478" lon="2.62476">
        <ele>131</ele>
        <time>2018-03-11T13:49:39Z</time>
      </trkpt>
      <trkpt lat="48.40494" lon="2.62493">
        <ele>129</ele>
        <time>2018-03-11T13:49:58Z</time>
      </trkpt>
      <trkpt lat="48.40504" lon="2.62488">
        <ele>127</ele>
        <time>2018-03-11T13:50:22Z</time>
      </trkpt>
      <trkpt lat="48.40498" lon="2.62463">
        <ele>131</ele>
        <time>2018-03-11T13:50:43Z</time>
      </trkpt>
      <trkpt lat="48.40502" lon="2.62434">
        <ele>128</ele>
        <time>2018-03-11T13:51:06Z</time>
      </trkpt>
      <trkpt lat="48.40498" lon="2.62389">
        <ele>132</ele>
        <time>2018-03-11T13:51:32Z</time>
      </trkpt>
      <trkpt lat="48.40505" lon="2.62362">
        <ele>129</ele>
        <time>2018-03-11T13:51:57Z</time>
      </trkpt>
      <trkpt lat="48.40501" lon="2.62341">
        <ele>130</ele>
        <time>2018-03-11T13:52:17Z</time>
      </trkpt>
      <trkpt lat="48.40494" lon="2.62306">
        <ele>133</ele>
        <time>2018-03-11T13:52:42Z</time>
      </trkpt>
      <trkpt lat="48.40495" lon="2.62294">
        <ele>133</ele>
        <time>2018-03-11T13:52:56Z</time>
      </trkpt>
      <trkpt lat="48.40484" lon="2.62258">
        <ele>133</ele>
        <time>2018-03-11T13:53:22Z</time>
      </trkpt>
      <trkpt lat="48.40486" lon="2.62226">
        <ele>135</ele>
        <time>2018-03-11T13:53:43Z</time>
      </trkpt>
      <trkpt lat="48.40483" lon="2.62193">
        <ele>135</ele>
        <time>2018-03-11T13:54:07Z</time>
      </trkpt>
      <trkpt lat="48.40482" lon="2.62161">
        <ele>136</ele>
        <time>2018-03-11T13:54:32Z</time>
      </trkpt>
      <trkpt lat="48.40478" lon="2.62125">
        <ele>137</ele>
        <time>2018-03-11T13:54:56Z</time>
      </trkpt>
      <trkpt lat="48.40476" lon="2.62101">
        <ele>137</ele>
        <time>2018-03-11T13:55:20Z</time>
      </trkpt>
      <trkpt lat="48.40475" lon="2.62057">
        <ele>138</ele>
        <time>2018-03-11T13:55:46Z</time>
      </trkpt>
      <trkpt lat="48.40472" lon="2.62033">
        <ele>138</ele>
        <time>2018-03-11T13:56:01Z</time>
      </trkpt>
      <trkpt lat="48.40469" lon="2.62011">
        <ele>138</ele>
        <time>2018-03-11T13:56:17Z</time>
      </trkpt>
      <trkpt lat="48.4047" lon="2.61984">
        <ele>138</ele>
        <time>2018-03-11T13:56:39Z</time>
      </trkpt>
      <trkpt lat="48.4048" lon="2.61953">
        <ele>138</ele>
        <time>2018-03-11T13:57:05Z</time>
      </trkpt>
      <trkpt lat="48.40482" lon="2.6193">
        <ele>138</ele>
        <time>2018-03-11T13:57:31Z</time>
      </trkpt>
      <trkpt lat="48.40493" lon="2.61894">
        <ele>138</ele>
        <time>2018-03-11T13:57:59Z</time>
      </trkpt>
      <trkpt lat="48.40498" lon="2.6186">
        <ele>137</ele>
        <time>2018-03-11T13:58:26Z</time>
      </trkpt>
      <trkpt lat="48.40506" lon="2.61824">
        <ele>135</ele>
        <time>2018-03-11T13:58:51Z</time>
      </trkpt>
      <trkpt lat="48.40517" lon="2.61788">
        <ele>133</ele>
        <time>2018-03-11T13:59:19Z</time>
      </trkpt>
      <trkpt lat="48.40524" lon="2.61753">
        <ele>133</ele>
        <time>2018-03-11T13:59:44Z</time>
      </trkpt>
      <trkpt lat="48.40529" lon="2.61721">
        <ele>132</ele>
        <time>2018-03-11T14:00:09Z</time>
      </trkpt>
      <trkpt lat="48.40541" lon="2.61676">
        <ele>132</ele>
        <time>2018-03-11T14:00:39Z</time>
      </trkpt>
      <trkpt lat="48.40545" lon="2.61651">
        <ele>132</ele>
        <time>2018-03-11T14:00:53Z</time>
      </trkpt>
      <trkpt lat="48.40551" lon="2.61639">
        <ele>131</ele>
        <time>2018-03-11T14:01:09Z</time>
      </trkpt>
      <trkpt lat="48.40557" lon="2.61595">
        <ele>132</ele>
        <time>2018-03-11T14:01:35Z</time>
      </trkpt>
      <trkpt lat="48.40569" lon="2.61561">
        <ele>132</ele>
        <time>2018-03-11T14:02:05Z</time>
      </trkpt>
      <trkpt lat="48.40576" lon="2.61516">
        <ele>131</ele>
        <time>2018-03-11T14:02:30Z</time>
      </trkpt>
      <trkpt lat="48.40572" lon="2.61483">
        <ele>132</ele>
        <time>2018-03-11T14:02:57Z</time>
      </trkpt>
      <trkpt lat="48.4055" lon="2.61492">
        <ele>132</ele>
        <time>2018-03-11T14:04:58Z</time>
      </trkpt>
      <trkpt lat="48.40536" lon="2.61483">
        <ele>132</ele>
        <time>2018-03-11T14:05:22Z</time>
      </trkpt>
      <trkpt lat="48.4052" lon="2.61472">
        <ele>132</ele>
        <time>2018-03-11T14:05:46Z</time>
      </trkpt>
      <trkpt lat="48.40497" lon="2.61461">
        <ele>134</ele>
        <time>2018-03-11T14:06:09Z</time>
      </trkpt>
      <trkpt lat="48.40478" lon="2.61452">
        <ele>134</ele>
        <time>2018-03-11T14:06:32Z</time>
      </trkpt>
      <trkpt lat="48.40464" lon="2.61446">
        <ele>135</ele>
        <time>2018-03-11T14:06:57Z</time>
      </trkpt>
      <trkpt lat="48.40438" lon="2.61431">
        <ele>135</ele>
        <time>2018-03-11T14:07:21Z</time>
      </trkpt>
      <trkpt lat="48.40419" lon="2.6143">
        <ele>136</ele>
        <time>2018-03-11T14:07:44Z</time>
      </trkpt>
      <trkpt lat="48.4042" lon="2.6144">
        <ele>136</ele>
        <time>2018-03-11T14:08:10Z</time>
      </trkpt>
      <trkpt lat="48.404" lon="2.61422">
        <ele>136</ele>
        <time>2018-03-11T14:08:38Z</time>
      </trkpt>
      <trkpt lat="48.40385" lon="2.61423">
        <ele>135</ele>
        <time>2018-03-11T14:09:00Z</time>
      </trkpt>
      <trkpt lat="48.40368" lon="2.61414">
        <ele>134</ele>
        <time>2018-03-11T14:09:21Z</time>
      </trkpt>
      <trkpt lat="48.40347" lon="2.61416">
        <ele>134</ele>
        <time>2018-03-11T14:09:44Z</time>
      </trkpt>
      <trkpt lat="48.4033" lon="2.61405">
        <ele>132</ele>
        <time>2018-03-11T14:10:08Z</time>
      </trkpt>
      <trkpt lat="48.40305" lon="2.61408">
        <ele>131</ele>
        <time>2018-03-11T14:10:32Z</time>
      </trkpt>
      <trkpt lat="48.40289" lon="2.61399">
        <ele>131</ele>
        <time>2018-03-11T14:10:55Z</time>
      </trkpt>
      <trkpt lat="48.40281" lon="2.61401">
        <ele>131</ele>
        <time>2018-03-11T14:11:20Z</time>
      </trkpt>
      <trkpt lat="48.40268" lon="2.61382">
        <ele>131</ele>
        <time>2018-03-11T14:11:43Z</time>
      </trkpt>
      <trkpt lat="48.40252" lon="2.61376">
        <ele>130</ele>
        <time>2018-03-11T14:12:09Z</time>
      </trkpt>
      <trkpt lat="48.40235" lon="2.61387">
        <ele>129</ele>
        <time>2018-03-11T14:12:34Z</time>
      </trkpt>
      <trkpt lat="48.40226" lon="2.61388">
        <ele>129</ele>
        <time>2018-03-11T14:12:52Z</time>
      </trkpt>
      <trkpt lat="48.40222" lon="2.61385">
        <ele>129</ele>
        <time>2018-03-11T14:13:05Z</time>
      </trkpt>
      <trkpt lat="48.40212" lon="2.61388">
        <ele>129</ele>
        <time>2018-03-11T14:13:19Z</time>
      </trkpt>
      <trkpt lat="48.40198" lon="2.61387">
        <ele>130</ele>
        <time>2018-03-11T14:13:34Z</time>
      </trkpt>
      <trkpt lat="48.4019" lon="2.61391">
        <ele>130</ele>
        <time>2018-03-11T14:13:48Z</time>
      </trkpt>
      <trkpt lat="48.4018" lon="2.61392">
        <ele>130</ele>
        <time>2018-03-11T14:14:03Z</time>
      </trkpt>
      <trkpt lat="48.40174" lon="2.61391">
        <ele>130</ele>
        <time>2018-03-11T14:14:26Z</time>
      </trkpt>
      <trkpt lat="48.40167" lon="2.61391">
        <ele>130</ele>
        <time>2018-03-11T14:14:34Z</time>
      </trkpt>
      <trkpt lat="48.40159" lon="2.61388">
        <ele>129</ele>
        <time>2018-03-11T14:14:46Z</time>
      </trkpt>
      <trkpt lat="48.40152" lon="2.61387">
        <ele>129</ele>
        <time>2018-03-11T14:15:01Z</time>
      </trkpt>
      <trkpt lat="48.4014" lon="2.61388">
        <ele>129</ele>
        <time>2018-03-11T14:15:17Z</time>
      </trkpt>
      <trkpt lat="48.40131" lon="2.6139">
        <ele>129</ele>
        <time>2018-03-11T14:15:33Z</time>
      </trkpt>
      <trkpt lat="48.40123" lon="2.61392">
        <ele>129</ele>
        <time>2018-03-11T14:15:47Z</time>
      </trkpt>
      <trkpt lat="48.4012" lon="2.61397">
        <ele>129</ele>
        <time>2018-03-11T14:16:06Z</time>
      </trkpt>
      <trkpt lat="48.40106" lon="2.61409">
        <ele>129</ele>
        <time>2018-03-11T14:16:22Z</time>
      </trkpt>
      <trkpt lat="48.40097" lon="2.61413">
        <ele>130</ele>
        <time>2018-03-11T14:16:38Z</time>
      </trkpt>
      <trkpt lat="48.40099" lon="2.61425">
        <ele>130</ele>
        <time>2018-03-11T14:16:54Z</time>
      </trkpt>
      <trkpt lat="48.40097" lon="2.61434">
        <ele>131</ele>
        <time>2018-03-11T14:17:06Z</time>
      </trkpt>
      <trkpt lat="48.40094" lon="2.61444">
        <ele>131</ele>
        <time>2018-03-11T14:17:18Z</time>
      </trkpt>
      <trkpt lat="48.40101" lon="2.61464">
        <ele>131</ele>
        <time>2018-03-11T14:18:11Z</time>
      </trkpt>
      <trkpt lat="48.40101" lon="2.61467">
        <ele>131</ele>
        <time>2018-03-11T14:20:00Z</time>
      </trkpt>
      <trkpt lat="48.40097" lon="2.61471">
        <ele>131</ele>
        <time>2018-03-11T14:22:22Z</time>
      </trkpt>
      <trkpt lat="48.40092" lon="2.61472">
        <ele>131</ele>
        <time>2018-03-11T14:22:53Z</time>
      </trkpt>
      <trkpt lat="48.40096" lon="2.61431">
        <ele>131</ele>
        <time>2018-03-11T14:23:21Z</time>
      </trkpt>
      <trkpt lat="48.4009" lon="2.61415">
        <ele>130</ele>
        <time>2018-03-11T14:23:45Z</time>
      </trkpt>
      <trkpt lat="48.40082" lon="2.61408">
        <ele>130</ele>
        <time>2018-03-11T14:24:09Z</time>
      </trkpt>
      <trkpt lat="48.40093" lon="2.61409">
        <ele>130</ele>
        <time>2018-03-11T14:24:32Z</time>
      </trkpt>
      <trkpt lat="48.40095" lon="2.61399">
        <ele>129</ele>
        <time>2018-03-11T14:24:52Z</time>
      </trkpt>
      <trkpt lat="48.4011" lon="2.61389">
        <ele>129</ele>
        <time>2018-03-11T14:25:18Z</time>
      </trkpt>
      <trkpt lat="48.40127" lon="2.61389">
        <ele>129</ele>
        <time>2018-03-11T14:25:43Z</time>
      </trkpt>
      <trkpt lat="48.40147" lon="2.61383">
        <ele>129</ele>
        <time>2018-03-11T14:26:08Z</time>
      </trkpt>
      <trkpt lat="48.40155" lon="2.61383">
        <ele>129</ele>
        <time>2018-03-11T14:26:33Z</time>
      </trkpt>
      <trkpt lat="48.40158" lon="2.61373">
        <ele>129</ele>
        <time>2018-03-11T14:27:00Z</time>
      </trkpt>
      <trkpt lat="48.40176" lon="2.61375">
        <ele>130</ele>
        <time>2018-03-11T14:27:24Z</time>
      </trkpt>
      <trkpt lat="48.4019" lon="2.614">
        <ele>130</ele>
        <time>2018-03-11T14:27:48Z</time>
      </trkpt>
      <trkpt lat="48.40197" lon="2.61433">
        <ele>130</ele>
        <time>2018-03-11T14:28:12Z</time>
      </trkpt>
      <trkpt lat="48.40206" lon="2.61447">
        <ele>130</ele>
        <time>2018-03-11T14:28:35Z</time>
      </trkpt>
      <trkpt lat="48.40227" lon="2.61459">
        <ele>130</ele>
        <time>2018-03-11T14:29:01Z</time>
      </trkpt>
      <trkpt lat="48.40226" lon="2.61496">
        <ele>130</ele>
        <time>2018-03-11T14:29:24Z</time>
      </trkpt>
      <trkpt lat="48.40212" lon="2.61528">
        <ele>131</ele>
        <time>2018-03-11T14:29:49Z</time>
      </trkpt>
      <trkpt lat="48.40209" lon="2.61563">
        <ele>131</ele>
        <time>2018-03-11T14:30:14Z</time>
      </trkpt>
      <trkpt lat="48.40208" lon="2.61599">
        <ele>132</ele>
        <time>2018-03-11T14:30:41Z</time>
      </trkpt>
      <trkpt lat="48.40213" lon="2.61624">
        <ele>132</ele>
        <time>2018-03-11T14:31:04Z</time>
      </trkpt>
      <trkpt lat="48.40207" lon="2.61663">
        <ele>132</ele>
        <time>2018-03-11T14:31:30Z</time>
      </trkpt>
      <trkpt lat="48.40214" lon="2.61693">
        <ele>133</ele>
        <time>2018-03-11T14:31:56Z</time>
      </trkpt>
      <trkpt lat="48.4021" lon="2.61729">
        <ele>133</ele>
        <time>2018-03-11T14:32:17Z</time>
      </trkpt>
      <trkpt lat="48.40206" lon="2.61756">
        <ele>133</ele>
        <time>2018-03-11T14:32:39Z</time>
      </trkpt>
      <trkpt lat="48.40203" lon="2.6179">
        <ele>133</ele>
        <time>2018-03-11T14:33:02Z</time>
      </trkpt>
      <trkpt lat="48.40199" lon="2.61824">
        <ele>133</ele>
        <time>2018-03-11T14:33:24Z</time>
      </trkpt>
      <trkpt lat="48.40187" lon="2.6185">
        <ele>133</ele>
        <time>2018-03-11T14:33:51Z</time>
      </trkpt>
      <trkpt lat="48.40181" lon="2.61881">
        <ele>133</ele>
        <time>2018-03-11T14:34:13Z</time>
      </trkpt>
      <trkpt lat="48.40182" lon="2.61908">
        <ele>132</ele>
        <time>2018-03-11T14:34:36Z</time>
      </trkpt>
      <trkpt lat="48.40187" lon="2.61939">
        <ele>133</ele>
        <time>2018-03-11T14:35:02Z</time>
      </trkpt>
      <trkpt lat="48.40189" lon="2.61967">
        <ele>133</ele>
        <time>2018-03-11T14:35:27Z</time>
      </trkpt>
      <trkpt lat="48.40174" lon="2.62009">
        <ele>133</ele>
        <time>2018-03-11T14:35:54Z</time>
      </trkpt>
      <trkpt lat="48.40157" lon="2.62033">
        <ele>134</ele>
        <time>2018-03-11T14:36:19Z</time>
      </trkpt>
      <trkpt lat="48.40146" lon="2.62056">
        <ele>134</ele>
        <time>2018-03-11T14:36:44Z</time>
      </trkpt>
      <trkpt lat="48.40138" lon="2.62083">
        <ele>134</ele>
        <time>2018-03-11T14:37:07Z</time>
      </trkpt>
      <trkpt lat="48.40134" lon="2.62114">
        <ele>135</ele>
        <time>2018-03-11T14:37:33Z</time>
      </trkpt>
      <trkpt lat="48.40133" lon="2.62142">
        <ele>135</ele>
        <time>2018-03-11T14:37:58Z</time>
      </trkpt>
      <trkpt lat="48.40143" lon="2.62163">
        <ele>135</ele>
        <time>2018-03-11T14:38:21Z</time>
      </trkpt>
      <trkpt lat="48.40149" lon="2.62191">
        <ele>135</ele>
        <time>2018-03-11T14:38:44Z</time>
      </trkpt>
      <trkpt lat="48.40154" lon="2.62208">
        <ele>135</ele>
        <time>2018-03-11T14:39:08Z</time>
      </trkpt>
      <trkpt lat="48.40156" lon="2.62209">
        <ele>135</ele>
        <time>2018-03-11T14:40:22Z</time>
      </trkpt>
      <trkpt lat="48.40161" lon="2.62224">
        <ele>135</ele>
        <time>2018-03-11T14:40:54Z</time>
      </trkpt>
      <trkpt lat="48.40155" lon="2.62231">
        <ele>136</ele>
        <time>2018-03-11T14:41:19Z</time>
      </trkpt>
      <trkpt lat="48.40151" lon="2.62208">
        <ele>135</ele>
        <time>2018-03-11T14:41:42Z</time>
      </trkpt>
      <trkpt lat="48.40146" lon="2.62212">
        <ele>135</ele>
        <time>2018-03-11T14:42:08Z</time>
      </trkpt>
      <trkpt lat="48.40144" lon="2.62209">
        <ele>135</ele>
        <time>2018-03-11T14:42:31Z</time>
      </trkpt>
      <trkpt lat="48.40135" lon="2.62205">
        <ele>135</ele>
        <time>2018-03-11T14:42:41Z</time>
      </trkpt>
      <trkpt lat="48.40126" lon="2.62198">
        <ele>135</ele>
        <time>2018-03-11T14:43:06Z</time>
      </trkpt>
      <trkpt lat="48.40122" lon="2.62209">
        <ele>135</ele>
        <time>2018-03-11T14:44:45Z</time>
      </trkpt>
      <trkpt lat="48.40111" lon="2.622">
        <ele>135</ele>
        <time>2018-03-11T14:45:08Z</time>
      </trkpt>
      <trkpt lat="48.4009" lon="2.62186">
        <ele>135</ele>
        <time>2018-03-11T14:45:31Z</time>
      </trkpt>
      <trkpt lat="48.40069" lon="2.62174">
        <ele>135</ele>
        <time>2018-03-11T14:45:56Z</time>
      </trkpt>
      <trkpt lat="48.40054" lon="2.62164">
        <ele>135</ele>
        <time>2018-03-11T14:46:19Z</time>
      </trkpt>
      <trkpt lat="48.40046" lon="2.62143">
        <ele>135</ele>
        <time>2018-03-11T14:46:45Z</time>
      </trkpt>
      <trkpt lat="48.40025" lon="2.62134">
        <ele>136</ele>
        <time>2018-03-11T14:47:08Z</time>
      </trkpt>
      <trkpt lat="48.40015" lon="2.62134">
        <ele>136</ele>
        <time>2018-03-11T14:47:33Z</time>
      </trkpt>
      <trkpt lat="48.40018" lon="2.62143">
        <ele>136</ele>
        <time>2018-03-11T14:47:55Z</time>
      </trkpt>
      <trkpt lat="48.40013" lon="2.62159">
        <ele>136</ele>
        <time>2018-03-11T14:48:18Z</time>
      </trkpt>
      <trkpt lat="48.39998" lon="2.62177">
        <ele>136</ele>
        <time>2018-03-11T14:48:43Z</time>
      </trkpt>
      <trkpt lat="48.40002" lon="2.62195">
        <ele>136</ele>
        <time>2018-03-11T14:49:07Z</time>
      </trkpt>
      <trkpt lat="48.40003" lon="2.62217">
        <ele>136</ele>
        <time>2018-03-11T14:49:30Z</time>
      </trkpt>
      <trkpt lat="48.39991" lon="2.62218">
        <ele>136</ele>
        <time>2018-03-11T14:49:51Z</time>
      </trkpt>
      <trkpt lat="48.39995" lon="2.62193">
        <ele>136</ele>
        <time>2018-03-11T14:50:15Z</time>
      </trkpt>
      <trkpt lat="48.39986" lon="2.62192">
        <ele>136</ele>
        <time>2018-03-11T14:50:44Z</time>
      </trkpt>
      <trkpt lat="48.39987" lon="2.62198">
        <ele>136</ele>
        <time>2018-03-11T14:51:03Z</time>
      </trkpt>
      <trkpt lat="48.39985" lon="2.62202">
        <ele>136</ele>
        <time>2018-03-11T14:51:55Z</time>
      </trkpt>
      <trkpt lat="48.39978" lon="2.62205">
        <ele>136</ele>
        <time>2018-03-11T14:52:08Z</time>
      </trkpt>
      <trkpt lat="48.39973" lon="2.62204">
        <ele>136</ele>
        <time>2018-03-11T14:52:22Z</time>
      </trkpt>
      <trkpt lat="48.39965" lon="2.62203">
        <ele>136</ele>
        <time>2018-03-11T14:52:37Z</time>
      </trkpt>
      <trkpt lat="48.39956" lon="2.622">
        <ele>136</ele>
        <time>2018-03-11T14:52:50Z</time>
      </trkpt>
      <trkpt lat="48.39951" lon="2.62191">
        <ele>136</ele>
        <time>2018-03-11T14:53:11Z</time>
      </trkpt>
      <trkpt lat="48.39936" lon="2.62183">
        <ele>136</ele>
        <time>2018-03-11T14:53:27Z</time>
      </trkpt>
      <trkpt lat="48.39926" lon="2.62182">
        <ele>136</ele>
        <time>2018-03-11T14:53:40Z</time>
      </trkpt>
      <trkpt lat="48.3992" lon="2.62179">
        <ele>136</ele>
        <time>2018-03-11T14:53:52Z</time>
      </trkpt>
      <trkpt lat="48.39915" lon="2.62174">
        <ele>136</ele>
        <time>2018-03-11T14:54:06Z</time>
      </trkpt>
      <trkpt lat="48.39911" lon="2.62174">
        <ele>137</ele>
        <time>2018-03-11T14:54:17Z</time>
      </trkpt>
      <trkpt lat="48.39908" lon="2.62174">
        <ele>137</ele>
        <time>2018-03-11T14:54:27Z</time>
      </trkpt>
      <trkpt lat="48.39903" lon="2.62172">
        <ele>137</ele>
        <time>2018-03-11T14:54:40Z</time>
      </trkpt>
      <trkpt lat="48.39893" lon="2.62172">
        <ele>137</ele>
        <time>2018-03-11T14:54:52Z</time>
      </trkpt>
      <trkpt lat="48.39882" lon="2.62172">
        <ele>138</ele>
        <time>2018-03-11T14:55:04Z</time>
      </trkpt>
      <trkpt lat="48.3988" lon="2.62169">
        <ele>138</ele>
        <time>2018-03-11T14:55:32Z</time>
      </trkpt>
      <trkpt lat="48.39875" lon="2.62155">
        <ele>137</ele>
        <time>2018-03-11T14:56:09Z</time>
      </trkpt>
      <trkpt lat="48.39872" lon="2.62148">
        <ele>137</ele>
        <time>2018-03-11T14:56:24Z</time>
      </trkpt>
      <trkpt lat="48.39858" lon="2.62125">
        <ele>137</ele>
        <time>2018-03-11T14:56:46Z</time>
      </trkpt>
      <trkpt lat="48.3985" lon="2.62105">
        <ele>137</ele>
        <time>2018-03-11T14:57:07Z</time>
      </trkpt>
      <trkpt lat="48.39846" lon="2.62093">
        <ele>137</ele>
        <time>2018-03-11T14:57:29Z</time>
      </trkpt>
      <trkpt lat="48.39835" lon="2.6207">
        <ele>136</ele>
        <time>2018-03-11T14:57:52Z</time>
      </trkpt>
      <trkpt lat="48.39825" lon="2.62044">
        <ele>137</ele>
        <time>2018-03-11T14:58:17Z</time>
      </trkpt>
      <trkpt lat="48.39824" lon="2.62038">
        <ele>137</ele>
        <time>2018-03-11T14:58:42Z</time>
      </trkpt>
      <trkpt lat="48.39813" lon="2.62022">
        <ele>137</ele>
        <time>2018-03-11T14:59:06Z</time>
      </trkpt>
      <trkpt lat="48.39803" lon="2.61991">
        <ele>136</ele>
        <time>2018-03-11T14:59:30Z</time>
      </trkpt>
      <trkpt lat="48.39795" lon="2.61968">
        <ele>136</ele>
        <time>2018-03-11T15:02:06Z</time>
      </trkpt>
      <trkpt lat="48.39798" lon="2.62013">
        <ele>137</ele>
        <time>2018-03-11T15:02:30Z</time>
      </trkpt>
      <trkpt lat="48.39797" lon="2.62041">
        <ele>137</ele>
        <time>2018-03-11T15:02:55Z</time>
      </trkpt>
      <trkpt lat="48.39803" lon="2.62066">
        <ele>137</ele>
        <time>2018-03-11T15:03:17Z</time>
      </trkpt>
      <trkpt lat="48.39808" lon="2.6208">
        <ele>137</ele>
        <time>2018-03-11T15:03:39Z</time>
      </trkpt>
      <trkpt lat="48.39811" lon="2.62086">
        <ele>138</ele>
        <time>2018-03-11T15:04:06Z</time>
      </trkpt>
      <trkpt lat="48.39814" lon="2.62118">
        <ele>138</ele>
        <time>2018-03-11T15:04:33Z</time>
      </trkpt>
      <trkpt lat="48.39815" lon="2.62154">
        <ele>139</ele>
        <time>2018-03-11T15:04:59Z</time>
      </trkpt>
      <trkpt lat="48.39815" lon="2.6219">
        <ele>140</ele>
        <time>2018-03-11T15:05:24Z</time>
      </trkpt>
      <trkpt lat="48.39823" lon="2.62233">
        <ele>141</ele>
        <time>2018-03-11T15:05:49Z</time>
      </trkpt>
      <trkpt lat="48.39826" lon="2.62269">
        <ele>141</ele>
        <time>2018-03-11T15:06:14Z</time>
      </trkpt>
      <trkpt lat="48.39829" lon="2.62296">
        <ele>141</ele>
        <time>2018-03-11T15:06:39Z</time>
      </trkpt>
      <trkpt lat="48.3983" lon="2.62323">
        <ele>140</ele>
        <time>2018-03-11T15:07:01Z</time>
      </trkpt>
      <trkpt lat="48.39832" lon="2.62352">
        <ele>140</ele>
        <time>2018-03-11T15:07:26Z</time>
      </trkpt>
      <trkpt lat="48.39834" lon="2.62385">
        <ele>137</ele>
        <time>2018-03-11T15:07:54Z</time>
      </trkpt>
      <trkpt lat="48.39835" lon="2.62416">
        <ele>139</ele>
        <time>2018-03-11T15:08:18Z</time>
      </trkpt>
      <trkpt lat="48.3984" lon="2.62434">
        <ele>138</ele>
        <time>2018-03-11T15:08:40Z</time>
      </trkpt>
      <trkpt lat="48.3984" lon="2.62465">
        <ele>137</ele>
        <time>2018-03-11T15:09:06Z</time>
      </trkpt>
      <trkpt lat="48.39844" lon="2.62499">
        <ele>138</ele>
        <time>2018-03-11T15:09:32Z</time>
      </trkpt>
      <trkpt lat="48.39841" lon="2.62526">
        <ele>137</ele>
        <time>2018-03-11T15:09:58Z</time>
      </trkpt>
      <trkpt lat="48.39847" lon="2.62535">
        <ele>137</ele>
        <time>2018-03-11T15:10:14Z</time>
      </trkpt>
      <trkpt lat="48.39855" lon="2.62549">
        <ele>137</ele>
        <time>2018-03-11T15:10:40Z</time>
      </trkpt>
      <trkpt lat="48.39854" lon="2.62587">
        <ele>137</ele>
        <time>2018-03-11T15:11:05Z</time>
      </trkpt>
      <trkpt lat="48.39854" lon="2.62604">
        <ele>137</ele>
        <time>2018-03-11T15:11:15Z</time>
      </trkpt>
      <trkpt lat="48.39862" lon="2.62658">
        <ele>137</ele>
        <time>2018-03-11T15:11:32Z</time>
      </trkpt>
      <trkpt lat="48.39861" lon="2.62682">
        <ele>137</ele>
        <time>2018-03-11T15:11:54Z</time>
      </trkpt>
      <trkpt lat="48.39862" lon="2.6269">
        <ele>137</ele>
        <time>2018-03-11T15:12:14Z</time>
      </trkpt>
      <trkpt lat="48.39867" lon="2.6269">
        <ele>137</ele>
        <time>2018-03-11T15:13:28Z</time>
      </trkpt>
      <trkpt lat="48.39875" lon="2.62676">
        <ele>137</ele>
        <time>2018-03-11T15:13:57Z</time>
      </trkpt>
      <trkpt lat="48.39884" lon="2.62691">
        <ele>137</ele>
        <time>2018-03-11T15:14:20Z</time>
      </trkpt>
      <trkpt lat="48.39885" lon="2.62702">
        <ele>137</ele>
        <time>2018-03-11T15:14:42Z</time>
      </trkpt>
      <trkpt lat="48.39898" lon="2.62707">
        <ele>137</ele>
        <time>2018-03-11T15:15:03Z</time>
      </trkpt>
      <trkpt lat="48.39925" lon="2.62715">
        <ele>137</ele>
        <time>2018-03-11T15:15:30Z</time>
      </trkpt>
      <trkpt lat="48.39946" lon="2.62722">
        <ele>137</ele>
        <time>2018-03-11T15:15:53Z</time>
      </trkpt>
      <trkpt lat="48.39954" lon="2.62734">
        <ele>137</ele>
        <time>2018-03-11T15:16:16Z</time>
      </trkpt>
      <trkpt lat="48.39974" lon="2.62746">
        <ele>137</ele>
        <time>2018-03-11T15:16:41Z</time>
      </trkpt>
      <trkpt lat="48.39986" lon="2.62749">
        <ele>138</ele>
        <time>2018-03-11T15:17:06Z</time>
      </trkpt>
      <trkpt lat="48.4" lon="2.62752">
        <ele>138</ele>
        <time>2018-03-11T15:17:31Z</time>
      </trkpt>
      <trkpt lat="48.40022" lon="2.62755">
        <ele>138</ele>
        <time>2018-03-11T15:18:49Z</time>
      </trkpt>
      <trkpt lat="48.40031" lon="2.62771">
        <ele>138</ele>
        <time>2018-03-11T15:19:16Z</time>
      </trkpt>
      <trkpt lat="48.40045" lon="2.62777">
        <ele>138</ele>
        <time>2018-03-11T15:19:39Z</time>
      </trkpt>
      <trkpt lat="48.40061" lon="2.62781">
        <ele>138</ele>
        <time>2018-03-11T15:20:01Z</time>
      </trkpt>
      <trkpt lat="48.40069" lon="2.62782">
        <ele>138</ele>
        <time>2018-03-11T15:20:25Z</time>
      </trkpt>
      <trkpt lat="48.40081" lon="2.62789">
        <ele>138</ele>
        <time>2018-03-11T15:20:49Z</time>
      </trkpt>
      <trkpt lat="48.40099" lon="2.62797">
        <ele>140</ele>
        <time>2018-03-11T15:21:14Z</time>
      </trkpt>
      <trkpt lat="48.40119" lon="2.62806">
        <ele>141</ele>
        <time>2018-03-11T15:21:37Z</time>
      </trkpt>
      <trkpt lat="48.40135" lon="2.62814">
        <ele>141</ele>
        <time>2018-03-11T15:22:04Z</time>
      </trkpt>
      <trkpt lat="48.4015" lon="2.62832">
        <ele>142</ele>
        <time>2018-03-11T15:22:25Z</time>
      </trkpt>
      <trkpt lat="48.40163" lon="2.62841">
        <ele>143</ele>
        <time>2018-03-11T15:22:48Z</time>
      </trkpt>
      <trkpt lat="48.40188" lon="2.62849">
        <ele>144</ele>
        <time>2018-03-11T15:23:16Z</time>
      </trkpt>
      <trkpt lat="48.40224" lon="2.62865">
        <ele>144</ele>
        <time>2018-03-11T15:23:42Z</time>
      </trkpt>
      <trkpt lat="48.40254" lon="2.62878">
        <ele>142</ele>
        <time>2018-03-11T15:24:08Z</time>
      </trkpt>
      <trkpt lat="48.40262" lon="2.62881">
        <ele>142</ele>
        <time>2018-03-11T15:24:31Z</time>
      </trkpt>
      <trkpt lat="48.40278" lon="2.62886">
        <ele>142</ele>
        <time>2018-03-11T15:24:56Z</time>
      </trkpt>
      <trkpt lat="48.40285" lon="2.62872">
        <ele>142</ele>
        <time>2018-03-11T15:25:20Z</time>
      </trkpt>
      <trkpt lat="48.4029" lon="2.62872">
        <ele>142</ele>
        <time>2018-03-11T15:25:41Z</time>
      </trkpt>
      <trkpt lat="48.40294" lon="2.62888">
        <ele>142</ele>
        <time>2018-03-11T15:26:10Z</time>
      </trkpt>
      <trkpt lat="48.40291" lon="2.62906">
        <ele>142</ele>
        <time>2018-03-11T15:27:32Z</time>
      </trkpt>
      <trkpt lat="48.40296" lon="2.62889">
        <ele>142</ele>
        <time>2018-03-11T15:27:57Z</time>
      </trkpt>
      <trkpt lat="48.40305" lon="2.62894">
        <ele>142</ele>
        <time>2018-03-11T15:28:09Z</time>
      </trkpt>
      <trkpt lat="48.40325" lon="2.6291">
        <ele>141</ele>
        <time>2018-03-11T15:28:28Z</time>
      </trkpt>
      <trkpt lat="48.40346" lon="2.62921">
        <ele>140</ele>
        <time>2018-03-11T15:28:52Z</time>
      </trkpt>
      <trkpt lat="48.40364" lon="2.62937">
        <ele>140</ele>
        <time>2018-03-11T15:29:17Z</time>
      </trkpt>
      <trkpt lat="48.40379" lon="2.62948">
        <ele>140</ele>
        <time>2018-03-11T15:29:39Z</time>
      </trkpt>
      <trkpt lat="48.40397" lon="2.62957">
        <ele>140</ele>
        <time>2018-03-11T15:30:02Z</time>
      </trkpt>
      <trkpt lat="48.40416" lon="2.62977">
        <ele>140</ele>
        <time>2018-03-11T15:30:26Z</time>
      </trkpt>
      <trkpt lat="48.40431" lon="2.63002">
        <ele>138</ele>
        <time>2018-03-11T15:30:52Z</time>
      </trkpt>
      <trkpt lat="48.4045" lon="2.6303">
        <ele>136</ele>
        <time>2018-03-11T15:31:21Z</time>
      </trkpt>
      <trkpt lat="48.40447" lon="2.63035">
        <ele>136</ele>
        <time>2018-03-11T15:32:15Z</time>
      </trkpt>
      <trkpt lat="48.40452" lon="2.6308">
        <ele>136</ele>
        <time>2018-03-11T15:32:41Z</time>
      </trkpt>
      <trkpt lat="48.40462" lon="2.63109">
        <ele>135</ele>
        <time>2018-03-11T15:33:06Z</time>
      </trkpt>
      <trkpt lat="48.40464" lon="2.63145">
        <ele>135</ele>
        <time>2018-03-11T15:33:34Z</time>
      </trkpt>
      <trkpt lat="48.40463" lon="2.63174">
        <ele>134</ele>
        <time>2018-03-11T15:33:59Z</time>
      </trkpt>
      <trkpt lat="48.40464" lon="2.63175">
        <ele>134</ele>
        <time>2018-03-11T15:35:36Z</time>
      </trkpt>
      <trkpt lat="48.40481" lon="2.63176">
        <ele>134</ele>
        <time>2018-03-11T15:35:59Z</time>
      </trkpt>
      <trkpt lat="48.40501" lon="2.63167">
        <ele>135</ele>
        <time>2018-03-11T15:36:24Z</time>
      </trkpt>
      <trkpt lat="48.40517" lon="2.6317">
        <ele>135</ele>
        <time>2018-03-11T15:36:46Z</time>
      </trkpt>
      <trkpt lat="48.4053" lon="2.63157">
        <ele>133</ele>
        <time>2018-03-11T15:37:11Z</time>
      </trkpt>
      <trkpt lat="48.40543" lon="2.63148">
        <ele>133</ele>
        <time>2018-03-11T15:37:33Z</time>
      </trkpt>
      <trkpt lat="48.40571" lon="2.63135">
        <ele>133</ele>
        <time>2018-03-11T15:38:04Z</time>
      </trkpt>
      <trkpt lat="48.40588" lon="2.63131">
        <ele>133</ele>
        <time>2018-03-11T15:38:27Z</time>
      </trkpt>
      <trkpt lat="48.40606" lon="2.63128">
        <ele>133</ele>
        <time>2018-03-11T15:38:50Z</time>
      </trkpt>
      <trkpt lat="48.40629" lon="2.63134">
        <ele>133</ele>
        <time>2018-03-11T15:39:16Z</time>
      </trkpt>
      <trkpt lat="48.4064" lon="2.63137">
        <ele>133</ele>
        <time>2018-03-11T15:39:42Z</time>
      </trkpt>
      <trkpt lat="48.40635" lon="2.63137">
        <ele>133</ele>
        <time>2018-03-11T15:40:06Z</time>
      </trkpt>
      <trkpt lat="48.40643" lon="2.63136">
        <ele>133</ele>
        <time>2018-03-11T15:40:34Z</time>
      </trkpt>
      <trkpt lat="48.40656" lon="2.63154">
        <ele>133</ele>
        <time>2018-03-11T15:41:00Z</time>
      </trkpt>
      <trkpt lat="48.40665" lon="2.63177">
        <ele>134</ele>
        <time>2018-03-11T15:41:24Z</time>
      </trkpt>
      <trkpt lat="48.40674" lon="2.6319">
        <ele>134</ele>
        <time>2018-03-11T15:41:50Z</time>
      </trkpt>
      <trkpt lat="48.40683" lon="2.63203">
        <ele>134</ele>
        <time>2018-03-11T15:42:16Z</time>
      </trkpt>
      <trkpt lat="48.40691" lon="2.63216">
        <ele>134</ele>
        <time>2018-03-11T15:42:39Z</time>
      </trkpt>
      <trkpt lat="48.40708" lon="2.6323">
        <ele>134</ele>
        <time>2018-03-11T15:43:06Z</time>
      </trkpt>
      <trkpt lat="48.40723" lon="2.63245">
        <ele>134</ele>
        <time>2018-03-11T15:43:30Z</time>
      </trkpt>
      <trkpt lat="48.40729" lon="2.63249">
        <ele>134</ele>
        <time>2018-03-11T15:43:45Z</time>
      </trkpt>
      <trkpt lat="48.40748" lon="2.63232">
        <ele>134</ele>
        <time>2018-03-11T15:44:09Z</time>
      </trkpt>
      <trkpt lat="48.40761" lon="2.63238">
        <ele>134</ele>
        <time>2018-03-11T15:44:32Z</time>
      </trkpt>
      <trkpt lat="48.40783" lon="2.63237">
        <ele>134</ele>
        <time>2018-03-11T15:44:58Z</time>
      </trkpt>
      <trkpt lat="48.40799" lon="2.63233">
        <ele>134</ele>
        <time>2018-03-11T15:45:22Z</time>
      </trkpt>
      <trkpt lat="48.40819" lon="2.63226">
        <ele>134</ele>
        <time>2018-03-11T15:45:47Z</time>
      </trkpt>
      <trkpt lat="48.40836" lon="2.63232">
        <ele>134</ele>
        <time>2018-03-11T15:46:12Z</time>
      </trkpt>
      <trkpt lat="48.40854" lon="2.63217">
        <ele>134</ele>
        <time>2018-03-11T15:46:38Z</time>
      </trkpt>
      <trkpt lat="48.40869" lon="2.63215">
        <ele>134</ele>
        <time>2018-03-11T15:47:50Z</time>
      </trkpt>
      <trkpt lat="48.40872" lon="2.63208">
        <ele>134</ele>
        <time>2018-03-11T15:48:13Z</time>
      </trkpt>
      <trkpt lat="48.40885" lon="2.63199">
        <ele>134</ele>
        <time>2018-03-11T15:48:39Z</time>
      </trkpt>
      <trkpt lat="48.40899" lon="2.63195">
        <ele>134</ele>
        <time>2018-03-11T15:49:03Z</time>
      </trkpt>
      <trkpt lat="48.40915" lon="2.63182">
        <ele>134</ele>
        <time>2018-03-11T15:49:29Z</time>
      </trkpt>
      <trkpt lat="48.4095" lon="2.63188">
        <ele>137</ele>
        <time>2018-03-11T15:49:54Z</time>
      </trkpt>
      <trkpt lat="48.40948" lon="2.6321">
        <ele>137</ele>
        <time>2018-03-11T15:50:19Z</time>
      </trkpt>
      <trkpt lat="48.40949" lon="2.63223">
        <ele>137</ele>
        <time>2018-03-11T15:50:37Z</time>
      </trkpt>
      <trkpt lat="48.40953" lon="2.63245">
        <ele>137</ele>
        <time>2018-03-11T15:51:02Z</time>
      </trkpt>
      <trkpt lat="48.40953" lon="2.63266">
        <ele>137</ele>
        <time>2018-03-11T15:51:27Z</time>
      </trkpt>
      <trkpt lat="48.4096" lon="2.63286">
        <ele>137</ele>
        <time>2018-03-11T15:51:52Z</time>
      </trkpt>
      <trkpt lat="48.40968" lon="2.63303">
        <ele>138</ele>
        <time>2018-03-11T15:52:16Z</time>
      </trkpt>
      <trkpt lat="48.40973" lon="2.63315">
        <ele>138</ele>
        <time>2018-03-11T15:55:25Z</time>
      </trkpt>
      <trkpt lat="48.40976" lon="2.63355">
        <ele>139</ele>
        <time>2018-03-11T15:55:52Z</time>
      </trkpt>
      <trkpt lat="48.4098" lon="2.63369">
        <ele>139</ele>
        <time>2018-03-11T15:56:59Z</time>
      </trkpt>
      <trkpt lat="48.4099" lon="2.63375">
        <ele>139</ele>
        <time>2018-03-11T15:59:03Z</time>
      </trkpt>
      <trkpt lat="48.40991" lon="2.63375">
        <ele>139</ele>
        <time>2018-03-11T16:02:14Z</time>
      </trkpt>
      <trkpt lat="48.4099" lon="2.63395">
        <ele>139</ele>
        <time>2018-03-11T16:02:36Z</time>
      </trkpt>
      <trkpt lat="48.40972" lon="2.63415">
        <ele>139</ele>
        <time>2018-03-11T16:02:58Z</time>
      </trkpt>
      <trkpt lat="48.40959" lon="2.63431">
        <ele>139</ele>
        <time>2018-03-11T16:03:17Z</time>
      </trkpt>
      <trkpt lat="48.40943" lon="2.63456">
        <ele>139</ele>
        <time>2018-03-11T16:03:41Z</time>
      </trkpt>
      <trkpt lat="48.40928" lon="2.6348">
        <ele>139</ele>
        <time>2018-03-11T16:04:03Z</time>
      </trkpt>
      <trkpt lat="48.40909" lon="2.63503">
        <ele>139</ele>
        <time>2018-03-11T16:04:28Z</time>
      </trkpt>
      <trkpt lat="48.409" lon="2.63518">
        <ele>139</ele>
        <time>2018-03-11T16:04:52Z</time>
      </trkpt>
      <trkpt lat="48.40896" lon="2.63548">
        <ele>139</ele>
        <time>2018-03-11T16:05:12Z</time>
      </trkpt>
      <trkpt lat="48.40893" lon="2.63577">
        <ele>140</ele>
        <time>2018-03-11T16:05:33Z</time>
      </trkpt>
      <trkpt lat="48.40879" lon="2.63598">
        <ele>139</ele>
        <time>2018-03-11T16:05:55Z</time>
      </trkpt>
      <trkpt lat="48.40873" lon="2.63623">
        <ele>139</ele>
        <time>2018-03-11T16:06:16Z</time>
      </trkpt>
      <trkpt lat="48.40868" lon="2.63628">
        <ele>139</ele>
        <time>2018-03-11T16:06:33Z</time>
      </trkpt>
      <trkpt lat="48.40865" lon="2.63625">
        <ele>139</ele>
        <time>2018-03-11T16:06:56Z</time>
      </trkpt>
      <trkpt lat="48.40868" lon="2.63627">
        <ele>139</ele>
        <time>2018-03-11T16:07:15Z</time>
      </trkpt>
    </trkseg>
  </trk>
</gpx>